createdAt,value
2022-08-29T00:03:57.972Z,17.27
2022-08-29T00:08:01.400Z,17.05
2022-08-29T00:12:03.213Z,16.85
2022-08-29T00:16:05.163Z,16.68
2022-08-29T00:20:09.614Z,16.42
2022-08-29T00:24:11.357Z,16.40
2022-08-29T00:28:13.287Z,16.37
2022-08-29T00:32:14.979Z,16.25
2022-08-29T00:36:16.765Z,16.12
2022-08-29T00:40:23.852Z,16.01
2022-08-29T00:44:25.322Z,15.92
2022-08-29T00:48:26.985Z,15.82
2022-08-29T00:52:41.886Z,15.73
2022-08-29T00:56:45.438Z,15.66
2022-08-29T01:00:48.818Z,15.58
2022-08-29T01:04:50.335Z,15.38
2022-08-29T01:08:57.331Z,15.27
2022-08-29T01:13:00.092Z,15.26
2022-08-29T01:17:02.973Z,15.22
2022-08-29T01:21:07.462Z,15.19
2022-08-29T01:25:13.886Z,15.08
2022-08-29T01:29:16.793Z,15.03
2022-08-29T01:33:18.364Z,14.99
2022-08-29T01:37:20.471Z,14.92
2022-08-29T01:41:23.143Z,14.85
2022-08-29T01:45:25.385Z,14.77
2022-08-29T01:49:27.510Z,14.69
2022-08-29T01:53:29.030Z,14.63
2022-08-29T01:57:30.770Z,14.59
2022-08-29T02:01:42.280Z,14.55
2022-08-29T02:05:44.244Z,14.47
2022-08-29T02:09:47.084Z,14.44
2022-08-29T02:13:58.828Z,14.41
2022-08-29T02:18:00.297Z,14.40
2022-08-29T02:22:02.622Z,14.36
2022-08-29T02:26:05.837Z,14.33
2022-08-29T02:30:07.625Z,14.29
2022-08-29T02:34:09.602Z,14.21
2022-08-29T02:38:13.818Z,14.15
2022-08-29T02:42:15.394Z,13.99
2022-08-29T02:46:19.774Z,13.97
2022-08-29T02:50:22.394Z,13.87
2022-08-29T02:54:23.865Z,13.78
2022-08-29T02:58:25.613Z,13.81
2022-08-29T03:02:28.044Z,13.80
2022-08-29T03:06:29.675Z,13.77
2022-08-29T03:10:35.539Z,13.66
2022-08-29T03:14:37.251Z,13.57
2022-08-29T03:18:38.908Z,13.50
2022-08-29T03:22:41.409Z,13.45
2022-08-29T03:26:43.245Z,13.48
2022-08-29T03:30:45.254Z,13.49
2022-08-29T03:34:47.492Z,13.45
2022-08-29T03:38:49.064Z,13.44
2022-08-29T03:42:51.045Z,13.36
2022-08-29T03:46:52.782Z,13.40
2022-08-29T03:50:56.609Z,13.40
2022-08-29T03:54:59.182Z,13.37
2022-08-29T03:59:01.172Z,13.33
2022-08-29T04:03:02.797Z,13.23
2022-08-29T04:07:06.516Z,13.16
2022-08-29T04:11:12.810Z,13.15
2022-08-29T04:15:14.426Z,13.12
2022-08-29T04:19:19.106Z,13.05
2022-08-29T04:23:20.788Z,13.04
2022-08-29T04:27:22.361Z,13.07
2022-08-29T04:31:23.878Z,13.09
2022-08-29T04:35:25.586Z,13.08
2022-08-29T04:39:27.107Z,12.99
2022-08-29T04:43:28.844Z,12.97
2022-08-29T04:47:31.059Z,12.95
2022-08-29T04:51:34.711Z,13.02
2022-08-29T04:55:36.243Z,13.12
2022-08-29T04:59:37.916Z,13.26
2022-08-29T05:03:39.621Z,13.38
2022-08-29T05:07:42.589Z,13.45
2022-08-29T05:11:44.152Z,13.52
2022-08-29T05:15:45.956Z,13.68
2022-08-29T05:19:48.105Z,13.80
2022-08-29T05:23:49.831Z,14.02
2022-08-29T05:28:27.714Z,14.21
2022-08-29T05:32:36.006Z,14.46
2022-08-29T05:36:45.842Z,14.74
2022-08-29T05:45:07.567Z,15.35
2022-08-29T05:49:08.958Z,15.68
2022-08-29T05:53:13.069Z,16.08
2022-08-29T06:01:48.232Z,17.71
2022-08-29T06:05:54.379Z,18.02
2022-08-29T06:10:03.691Z,18.24
2022-08-29T06:23:27.369Z,18.99
2022-08-29T06:27:37.353Z,19.19
2022-08-29T06:31:48.274Z,19.57
2022-08-29T06:35:51.175Z,19.84
2022-08-29T06:39:52.865Z,20.06
2022-08-29T06:43:59.645Z,20.07
2022-08-29T06:48:01.789Z,20.14
2022-08-29T06:52:05.352Z,20.19
2022-08-29T06:56:29.691Z,20.34
2022-08-29T07:00:49.525Z,20.49
2022-08-29T07:04:51.253Z,20.81
2022-08-29T07:08:55.971Z,21.16
2022-08-29T07:12:58.942Z,21.39
2022-08-29T07:17:00.949Z,21.69
2022-08-29T07:21:07.365Z,21.85
2022-08-29T07:25:12.283Z,21.98
2022-08-29T07:29:21.790Z,22.05
2022-08-29T07:33:36.238Z,21.96
2022-08-29T07:37:50.816Z,21.90
2022-08-29T07:46:24.739Z,22.19
2022-08-29T07:50:53.369Z,22.43
2022-08-29T07:59:57.761Z,23.30
2022-08-29T08:04:47.166Z,23.64
2022-08-29T08:14:17.343Z,23.49
2022-08-29T08:18:50.202Z,23.57
2022-08-29T08:23:48.243Z,24.04
2022-08-29T08:28:29.004Z,24.56
2022-08-29T08:33:10.779Z,25.06
2022-08-29T08:37:44.433Z,25.37
2022-08-29T08:42:15.662Z,25.66
2022-08-29T08:47:12.983Z,25.87
2022-08-29T08:51:38.956Z,26.02
2022-08-29T08:56:00.836Z,26.11
2022-08-29T09:00:08.134Z,26.21
2022-08-29T09:04:42.525Z,26.19
2022-08-29T09:08:59.537Z,26.33
2022-08-29T09:13:29.577Z,26.46
2022-08-29T09:17:43.514Z,26.50
2022-08-29T09:21:53.713Z,26.64
2022-08-29T09:26:00.548Z,26.80
2022-08-29T09:30:15.829Z,26.91
2022-08-29T09:34:56.995Z,27.02
2022-08-29T09:39:20.468Z,27.12
2022-08-29T09:43:31.386Z,27.25
2022-08-29T09:47:38.525Z,27.31
2022-08-29T09:51:48.641Z,27.40
2022-08-29T09:55:50.703Z,27.56
2022-08-29T10:00:14.317Z,27.60
2022-08-29T10:04:38.694Z,27.69
2022-08-29T10:08:42.403Z,27.60
2022-08-29T10:13:16.009Z,27.72
2022-08-29T10:17:43.838Z,27.82
2022-08-29T10:21:57.765Z,27.95
2022-08-29T10:26:10.006Z,28.12
2022-08-29T10:30:23.978Z,28.31
2022-08-29T10:34:54.843Z,28.46
2022-08-29T10:39:20.753Z,28.44
2022-08-29T10:43:45.318Z,28.47
2022-08-29T10:48:09.453Z,28.57
2022-08-29T10:52:18.087Z,28.53
2022-08-29T10:56:25.050Z,28.64
2022-08-29T11:00:44.055Z,28.89
2022-08-29T11:04:51.122Z,28.94
2022-08-29T11:09:06.178Z,28.96
2022-08-29T11:13:21.265Z,29.07
2022-08-29T11:17:29.693Z,29.13
2022-08-29T11:21:56.731Z,29.25
2022-08-29T11:26:21.725Z,29.27
2022-08-29T11:30:41.012Z,29.39
2022-08-29T11:34:51.605Z,29.54
2022-08-29T11:39:08.019Z,29.63
2022-08-29T11:43:14.515Z,29.72
2022-08-29T11:47:47.184Z,29.83
2022-08-29T11:51:54.183Z,29.89
2022-08-29T11:56:14.088Z,29.89
2022-08-29T12:00:50.298Z,30.01
2022-08-29T12:04:57.728Z,30.15
2022-08-29T12:09:24.196Z,30.30
2022-08-29T12:13:47.205Z,30.24
2022-08-29T12:18:01.845Z,30.44
2022-08-29T12:22:04.292Z,30.39
2022-08-29T12:26:25.817Z,30.39
2022-08-29T12:30:32.071Z,30.64
2022-08-29T12:35:17.378Z,30.52
2022-08-29T12:39:38.186Z,30.62
2022-08-29T12:43:43.889Z,30.57
2022-08-29T12:47:49.105Z,30.28
2022-08-29T12:52:01.786Z,30.24
2022-08-29T12:56:18.133Z,30.21
2022-08-29T13:00:26.268Z,30.25
2022-08-29T13:04:33.881Z,30.28
2022-08-29T13:08:41.293Z,30.26
2022-08-29T13:12:44.147Z,29.98
2022-08-29T13:16:45.633Z,29.96
2022-08-29T13:21:04.089Z,30.07
2022-08-29T13:25:16.999Z,30.38
2022-08-29T13:29:36.441Z,30.57
2022-08-29T13:34:00.302Z,30.69
2022-08-29T13:38:17.944Z,30.82
2022-08-29T13:42:27.833Z,31.05
2022-08-29T13:46:30.922Z,31.25
2022-08-29T13:50:32.582Z,31.46
2022-08-29T13:54:35.546Z,31.47
2022-08-29T13:58:37.668Z,31.51
2022-08-29T14:02:44.679Z,31.53
2022-08-29T14:06:47.417Z,31.44
2022-08-29T14:10:48.971Z,31.56
2022-08-29T14:14:50.566Z,31.79
2022-08-29T14:18:53.745Z,31.96
2022-08-29T14:22:55.272Z,32.04
2022-08-29T14:27:02.053Z,32.10
2022-08-29T14:31:04.198Z,32.10
2022-08-29T14:35:06.492Z,32.04
2022-08-29T14:39:08.743Z,32.05
2022-08-29T14:43:10.917Z,32.04
2022-08-29T14:47:12.803Z,32.06
2022-08-29T14:51:14.249Z,31.91
2022-08-29T14:55:16.989Z,31.85
2022-08-29T14:59:19.581Z,31.84
2022-08-29T15:03:21.198Z,31.87
2022-08-29T15:07:22.653Z,32.02
2022-08-29T15:11:24.337Z,32.07
2022-08-29T15:15:29.379Z,32.04
2022-08-29T15:23:52.806Z,31.97
2022-08-29T15:27:54.486Z,31.86
2022-08-29T15:31:59.971Z,31.79
2022-08-29T15:36:01.636Z,31.77
2022-08-29T15:40:04.683Z,31.67
2022-08-29T15:44:06.245Z,31.20
2022-08-29T15:48:11.671Z,30.65
2022-08-29T15:52:15.830Z,30.18
2022-08-29T15:56:17.473Z,29.94
2022-08-29T16:00:21.534Z,30.10
2022-08-29T16:04:32.309Z,29.98
2022-08-29T16:08:33.837Z,30.20
2022-08-29T16:12:36.411Z,30.54
2022-08-29T16:16:38.290Z,30.84
2022-08-29T16:20:45.569Z,31.05
2022-08-29T16:24:47.128Z,31.16
2022-08-29T16:28:48.901Z,31.23
2022-08-29T16:32:51.230Z,31.01
2022-08-29T16:36:56.413Z,30.51
2022-08-29T16:41:13.489Z,30.00
2022-08-29T16:45:15.199Z,29.54
2022-08-29T16:49:18.771Z,29.24
2022-08-29T16:53:20.702Z,28.93
2022-08-29T16:57:22.357Z,28.66
2022-08-29T17:01:23.808Z,28.41
2022-08-29T17:05:25.429Z,28.15
2022-08-29T17:09:26.954Z,27.98
2022-08-29T17:13:28.389Z,27.84
2022-08-29T17:17:33.163Z,27.73
2022-08-29T17:21:35.222Z,27.62
2022-08-29T17:25:36.625Z,27.48
2022-08-29T17:29:41.837Z,27.34
2022-08-29T17:33:43.513Z,27.24
2022-08-29T17:37:44.889Z,27.16
2022-08-29T17:41:50.450Z,27.04
2022-08-29T17:45:52.633Z,26.92
2022-08-29T17:49:54.270Z,26.83
2022-08-29T17:53:55.632Z,26.73
2022-08-29T17:57:58.685Z,26.61
2022-08-29T18:02:01.076Z,26.44
2022-08-29T18:06:03.571Z,26.26
2022-08-29T18:10:07.510Z,26.18
2022-08-29T18:14:23.770Z,26.08
2022-08-29T18:18:35.466Z,25.97
2022-08-29T18:22:40.201Z,25.85
2022-08-29T18:26:48.886Z,25.74
2022-08-29T18:31:18.408Z,25.59
2022-08-29T18:35:23.095Z,25.48
2022-08-29T18:44:21.913Z,25.19
2022-08-29T18:48:40.952Z,25.08
2022-08-29T18:52:52.876Z,24.95
2022-08-29T18:56:55.851Z,24.81
2022-08-29T19:01:29.009Z,24.64
2022-08-29T19:05:32.733Z,24.55
2022-08-29T19:09:34.249Z,24.45
2022-08-29T19:13:35.661Z,24.34
2022-08-29T19:17:38.183Z,24.22
2022-08-29T19:21:42.386Z,24.09
2022-08-29T19:25:50.059Z,23.98
2022-08-29T19:29:55.910Z,23.87
2022-08-29T19:34:03.205Z,23.71
2022-08-29T19:42:28.869Z,23.56
2022-08-29T19:46:35.730Z,23.50
2022-08-29T19:50:47.533Z,23.42
2022-08-29T19:55:24.571Z,23.34
2022-08-29T19:59:28.490Z,23.24
2022-08-29T20:03:35.465Z,23.13
2022-08-29T20:07:50.822Z,23.11
2022-08-29T20:11:52.459Z,23.06
2022-08-29T20:15:54.381Z,23.03
2022-08-29T20:19:56.062Z,22.98
2022-08-29T20:23:58.461Z,22.94
2022-08-29T20:28:00.276Z,22.92
2022-08-29T20:32:02.238Z,22.90
2022-08-29T20:36:22.277Z,22.87
2022-08-29T20:40:23.935Z,22.81
2022-08-29T20:44:33.129Z,22.76
2022-08-29T20:48:35.870Z,22.71
2022-08-29T20:52:37.919Z,22.69
2022-08-29T20:56:39.822Z,22.61
2022-08-29T21:00:41.174Z,22.56
2022-08-29T21:05:01.337Z,22.52
2022-08-29T21:09:04.169Z,22.46
2022-08-29T21:13:06.561Z,22.39
2022-08-29T21:17:11.349Z,22.33
2022-08-29T21:21:13.436Z,22.31
2022-08-29T21:25:15.226Z,22.26
2022-08-29T21:29:19.391Z,22.19
2022-08-29T21:33:22.247Z,22.12
2022-08-29T21:37:24.542Z,22.06
2022-08-29T21:41:29.068Z,22.01
2022-08-29T21:45:33.438Z,21.99
2022-08-29T21:49:34.955Z,21.96
2022-08-29T21:53:36.618Z,21.92
2022-08-29T21:57:52.205Z,21.83
2022-08-29T22:01:55.114Z,21.79
2022-08-29T22:05:56.805Z,21.74
2022-08-29T22:09:58.260Z,21.68
2022-08-29T22:13:59.744Z,21.63
2022-08-29T22:18:01.405Z,21.54
2022-08-29T22:22:03.682Z,21.49
2022-08-29T22:26:06.129Z,21.46
2022-08-29T22:30:09.249Z,21.39
2022-08-29T22:34:24.042Z,21.35
2022-08-29T22:38:27.532Z,21.31
2022-08-29T22:42:29.322Z,21.25
2022-08-29T22:46:30.864Z,21.17
2022-08-29T22:50:32.498Z,21.14
2022-08-29T22:54:36.837Z,21.10
2022-08-29T22:58:38.278Z,21.03
2022-08-29T23:02:40.815Z,20.98
2022-08-29T23:06:42.460Z,20.97
2022-08-29T23:10:45.206Z,20.91
2022-08-29T23:14:55.234Z,20.87
2022-08-29T23:18:57.658Z,20.84
2022-08-29T23:22:59.411Z,20.79
2022-08-29T23:27:03.153Z,20.76
2022-08-29T23:31:05.155Z,20.73
2022-08-29T23:35:08.116Z,20.68
2022-08-29T23:39:10.102Z,20.64
2022-08-29T23:43:12.401Z,20.57
2022-08-29T23:47:14.206Z,20.50
2022-08-29T23:51:16.145Z,20.44
2022-08-29T23:55:18.074Z,20.37
2022-08-29T23:59:38.274Z,20.32
